Time;durP1;ratioP1;P1;durP2;ratioP2;P2;SDS_P1;SDS_P2;PMS_P1;PMS_P2;Temp;Humidity;BMP_temperature;BMP_pressure;BME280_temperature;BME280_humidity;BME280_pressure;Samples;Min_cycle;Max_cycle;Signal;HPM_P1;HPM_P2
2024/04/08 00:01:18;;;;;;;4.10;2.30;;;19.50;93.80;;;;;;5054373;28;20498;-82
2024/04/08 00:03:44;;;;;;;3.63;2.50;;;19.50;95.00;;;;;;5055966;28;20444;-82
2024/04/08 00:06:12;;;;;;;3.67;1.90;;;19.50;95.70;;;;;;5053226;28;20572;-83
2024/04/08 00:08:38;;;;;;;6.57;3.20;;;19.40;94.70;;;;;;5037246;28;20488;-81
2024/04/08 00:11:07;;;;;;;9.47;2.03;;;19.50;93.70;;;;;;5058418;28;21397;-82
2024/04/08 00:13:37;;;;;;;6.60;2.20;;;19.50;93.20;;;;;;5055265;28;20460;-83
2024/04/08 00:16:05;;;;;;;3.47;2.10;;;19.60;93.90;;;;;;5060669;28;21018;-82
2024/04/08 00:18:33;;;;;;;5.23;1.93;;;19.60;94.40;;;;;;5053385;28;20471;-84
2024/04/08 00:21:01;;;;;;;3.40;2.00;;;19.50;95.10;;;;;;5051650;28;20483;-83
2024/04/08 00:23:28;;;;;;;7.03;2.50;;;19.40;95.00;;;;;;5055810;28;20483;-82
2024/04/08 00:25:56;;;;;;;4.93;2.30;;;19.40;93.00;;;;;;5053800;28;20451;-82
2024/04/08 00:28:22;;;;;;;7.70;2.53;;;19.40;94.70;;;;;;5051458;28;20495;-82
2024/04/08 00:30:49;;;;;;;6.50;2.33;;;19.40;95.20;;;;;;5053568;28;20480;-84
2024/04/08 00:33:15;;;;;;;3.23;1.87;;;19.40;94.50;;;;;;5060565;28;20601;-83
2024/04/08 00:35:44;;;;;;;3.23;1.77;;;19.40;94.90;;;;;;5049809;28;20491;-83
2024/04/08 00:38:10;;;;;;;7.23;2.13;;;19.40;94.70;;;;;;5052545;28;20483;-83
2024/04/08 00:40:38;;;;;;;5.33;2.60;;;19.40;94.70;;;;;;5053696;28;21426;-83
2024/04/08 00:43:08;;;;;;;3.30;2.03;;;19.40;94.10;;;;;;5054048;28;20483;-84
2024/04/08 00:45:37;;;;;;;8.33;1.93;;;19.40;94.40;;;;;;5054163;28;21433;-83
2024/04/08 00:48:04;;;;;;;6.27;2.23;;;19.50;93.00;;;;;;5063745;28;20451;-83
2024/04/08 00:50:32;;;;;;;3.63;2.13;;;19.60;92.90;;;;;;5059783;28;20479;-84
2024/04/08 00:52:59;;;;;;;8.83;2.20;;;19.60;91.20;;;;;;5056320;28;20480;-81
2024/04/08 00:55:28;;;;;;;4.20;2.27;;;19.70;92.80;;;;;;5055106;28;20525;-81
2024/04/08 00:57:57;;;;;;;6.57;1.77;;;19.60;93.80;;;;;;5058024;28;20450;-81
2024/04/08 01:00:24;;;;;;;3.37;2.00;;;19.60;94.30;;;;;;5057623;28;20485;-85
2024/04/08 01:02:52;;;;;;;3.03;1.77;;;19.50;93.40;;;;;;5043832;28;20443;-84
2024/04/08 01:05:18;;;;;;;3.97;1.63;;;19.40;92.70;;;;;;5056295;28;20489;-82
2024/04/08 01:07:47;;;;;;;7.00;2.40;;;19.30;91.10;;;;;;5039337;28;20827;-82
2024/04/08 01:10:16;;;;;;;6.97;1.77;;;19.40;90.40;;;;;;5053632;28;20478;-82
2024/04/08 01:12:43;;;;;;;6.97;2.23;;;19.50;91.80;;;;;;5047788;28;21443;-83
2024/04/08 01:15:10;;;;;;;6.63;2.30;;;19.60;90.90;;;;;;5052100;28;20524;-83
2024/04/08 01:17:37;;;;;;;2.80;2.23;;;19.60;90.50;;;;;;5050727;28;20459;-83
2024/04/08 01:20:04;;;;;;;11.07;2.00;;;19.70;91.10;;;;;;5050406;28;20470;-82
2024/04/08 01:22:33;;;;;;;7.50;2.07;;;19.70;90.40;;;;;;5049689;28;20552;-84
2024/04/08 01:25:04;;;;;;;5.30;2.00;;;19.80;91.50;;;;;;5052079;28;20451;-83
2024/04/08 01:27:31;;;;;;;2.53;1.83;;;19.70;92.00;;;;;;5035604;28;20562;-83
2024/04/08 01:29:58;;;;;;;6.40;2.57;;;19.70;92.30;;;;;;5050169;28;20452;-83
2024/04/08 01:32:25;;;;;;;7.50;1.70;;;19.60;92.10;;;;;;5052012;28;20485;-82
2024/04/08 01:34:51;;;;;;;6.43;2.03;;;19.50;91.60;;;;;;5038424;28;20490;-83
2024/04/08 01:37:18;;;;;;;10.03;2.50;;;19.50;92.40;;;;;;5052355;28;20456;-84
2024/04/08 01:39:45;;;;;;;6.90;1.83;;;19.50;92.20;;;;;;5050441;28;20447;-84
2024/04/08 01:42:13;;;;;;;6.97;2.00;;;19.40;92.50;;;;;;5055068;28;21059;-86
2024/04/08 01:44:40;;;;;;;5.33;2.40;;;19.30;92.80;;;;;;5049269;28;20451;-85
2024/04/08 01:47:07;;;;;;;5.63;2.10;;;19.20;99.90;;;;;;5053459;28;20453;-85
2024/04/08 01:49:34;;;;;;;3.40;1.87;;;19.20;91.80;;;;;;5052161;28;20479;-84
2024/04/08 01:52:01;;;;;;;4.00;2.10;;;19.20;92.30;;;;;;5052238;28;20474;-85
2024/04/08 01:54:27;;;;;;;3.67;2.30;;;19.20;92.10;;;;;;5051834;28;20452;-84
2024/04/08 01:56:55;;;;;;;6.27;2.40;;;19.20;92.80;;;;;;5035224;28;20473;-85
2024/04/08 01:59:22;;;;;;;6.37;1.90;;;19.20;90.70;;;;;;5052583;28;20542;-83
2024/04/08 02:01:50;;;;;;;6.17;1.93;;;19.30;90.10;;;;;;5050691;28;20517;-83
2024/04/08 02:04:16;;;;;;;4.97;2.63;;;19.30;91.80;;;;;;5036049;28;20478;-84
2024/04/08 02:06:43;;;;;;;5.77;2.20;;;19.30;91.90;;;;;;5052342;28;20462;-83
2024/04/08 02:09:09;;;;;;;5.50;2.20;;;19.20;92.30;;;;;;5053804;28;20454;-84
2024/04/08 02:11:37;;;;;;;5.83;2.60;;;19.20;92.50;;;;;;5051466;28;20467;-84
2024/04/08 02:14:03;;;;;;;9.43;2.23;;;19.10;93.00;;;;;;5053297;28;20561;-84
2024/04/08 02:16:32;;;;;;;3.00;2.03;;;19.10;92.70;;;;;;5055855;28;20459;-83
2024/04/08 02:18:59;;;;;;;4.67;2.47;;;19.00;91.90;;;;;;5040312;28;20487;-83
2024/04/08 02:21:26;;;;;;;3.40;2.33;;;19.00;92.70;;;;;;5049070;28;20471;-83
2024/04/08 02:23:52;;;;;;;8.70;2.50;;;19.00;93.20;;;;;;5053040;28;20487;-84
2024/04/08 02:26:20;;;;;;;7.50;2.93;;;18.90;93.20;;;;;;5056058;28;20455;-84
2024/04/08 02:28:46;;;;;;;9.40;2.40;;;18.80;92.90;;;;;;5043788;28;20640;-82
2024/04/08 02:31:13;;;;;;;7.30;2.00;;;18.80;93.10;;;;;;5056521;28;20463;-81
2024/04/08 02:33:41;;;;;;;5.80;2.60;;;18.80;93.70;;;;;;5057180;28;20522;-83
2024/04/08 02:36:08;;;;;;;5.83;2.33;;;18.70;93.90;;;;;;5055131;28;20577;-81
2024/04/08 02:38:34;;;;;;;8.90;2.73;;;18.60;93.60;;;;;;5053024;28;20478;-81
2024/04/08 02:41:02;;;;;;;5.00;2.57;;;18.60;94.50;;;;;;5055791;28;20491;-83
2024/04/08 02:43:28;;;;;;;8.07;2.90;;;18.50;94.00;;;;;;5061366;28;20462;-82
2024/04/08 02:45:55;;;;;;;3.73;2.50;;;18.40;93.10;;;;;;5057015;28;20463;-84
2024/04/08 02:48:23;;;;;;;6.87;2.37;;;18.40;93.30;;;;;;5054618;28;21033;-83
2024/04/08 02:50:52;;;;;;;6.33;2.50;;;18.40;94.40;;;;;;5054561;28;20523;-83
2024/04/08 02:53:19;;;;;;;6.80;2.50;;;18.40;99.90;;;;;;5054165;28;21085;-83
2024/04/08 02:55:46;;;;;;;6.97;2.67;;;18.40;94.90;;;;;;5054860;28;20459;-83
2024/04/08 02:58:12;;;;;;;4.80;3.03;;;18.40;95.20;;;;;;5057007;28;20473;-83
2024/04/08 03:00:40;;;;;;;5.10;2.47;;;18.40;95.30;;;;;;5057721;28;20483;-84
2024/04/08 03:03:06;;;;;;;5.50;3.00;;;18.30;96.00;;;;;;5036912;28;20933;-84
2024/04/08 03:05:33;;;;;;;3.60;2.80;;;18.10;94.50;;;;;;5056638;28;20586;-83
2024/04/08 03:08:02;;;;;;;4.27;2.53;;;18.10;94.80;;;;;;5055848;28;20466;-83
2024/04/08 03:10:29;;;;;;;5.40;2.70;;;18.10;94.60;;;;;;5054447;28;20506;-84
2024/04/08 03:12:55;;;;;;;5.33;2.17;;;18.10;95.50;;;;;;5058742;28;20510;-84
2024/04/08 03:15:22;;;;;;;5.00;2.90;;;18.10;95.90;;;;;;5058140;28;20453;-82
2024/04/08 03:17:50;;;;;;;8.40;2.80;;;18.10;94.90;;;;;;5046157;28;20451;-83
2024/04/08 03:20:17;;;;;;;5.93;2.43;;;18.10;95.00;;;;;;5059893;28;20502;-83
2024/04/08 03:22:44;;;;;;;5.63;2.53;;;18.10;94.20;;;;;;5059833;28;20447;-85
2024/04/08 03:25:12;;;;;;;6.20;2.30;;;18.10;95.50;;;;;;5055306;28;21103;-85
2024/04/08 03:27:41;;;;;;;6.93;2.40;;;18.10;95.10;;;;;;5056234;28;20507;-82
2024/04/08 03:30:09;;;;;;;5.70;2.77;;;18.10;95.40;;;;;;5057408;28;20467;-82
2024/04/08 03:32:36;;;;;;;5.50;2.70;;;18.00;95.50;;;;;;5057130;28;20471;-83
2024/04/08 03:35:04;;;;;;;5.40;2.70;;;18.00;94.70;;;;;;5056343;28;20522;-84
2024/04/08 03:37:31;;;;;;;5.43;2.40;;;18.00;94.70;;;;;;5071512;28;21090;-83
2024/04/08 03:39:59;;;;;;;7.37;3.07;;;18.00;95.80;;;;;;5055310;28;20477;-83
2024/04/08 03:42:27;;;;;;;3.33;2.47;;;18.00;95.60;;;;;;5058828;28;20465;-83
2024/04/08 03:44:55;;;;;;;8.70;2.70;;;17.90;95.90;;;;;;5059707;28;20450;-82
2024/04/08 03:47:22;;;;;;;6.07;2.90;;;17.90;95.50;;;;;;5057458;28;20478;-83
2024/04/08 03:49:53;;;;;;;7.40;3.37;;;17.90;96.30;;;;;;5056723;28;20457;-84
2024/04/08 03:52:20;;;;;;;3.83;2.57;;;17.90;96.40;;;;;;5055246;28;20486;-82
2024/04/08 03:54:47;;;;;;;5.47;2.67;;;17.90;97.10;;;;;;5057252;28;20483;-83
2024/04/08 03:57:14;;;;;;;6.17;2.93;;;17.70;94.70;;;;;;5052116;28;20491;-84
2024/04/08 03:59:46;;;;;;;4.60;2.63;;;17.80;93.60;;;;;;5058722;28;20467;-83
2024/04/08 04:02:12;;;;;;;6.27;2.80;;;17.90;93.70;;;;;;5045658;28;20455;-84
2024/04/08 04:04:39;;;;;;;7.83;3.03;;;17.90;93.00;;;;;;5056572;28;20550;-83
2024/04/08 04:07:05;;;;;;;4.40;2.10;;;17.90;93.10;;;;;;5052776;28;20496;-83
2024/04/08 04:09:33;;;;;;;6.47;2.53;;;18.00;99.90;;;;;;5052592;28;20447;-83
2024/04/08 04:11:59;;;;;;;6.20;2.20;;;18.00;92.50;;;;;;5056788;28;20511;-81
2024/04/08 04:14:26;;;;;;;6.97;2.70;;;17.90;93.30;;;;;;5054942;28;20555;-83
2024/04/08 04:16:54;;;;;;;3.90;2.10;;;17.80;93.10;;;;;;5056237;28;20486;-85
2024/04/08 04:19:21;;;;;;;9.83;2.83;;;17.80;94.00;;;;;;5052801;28;20440;-83
2024/04/08 04:21:47;;;;;;;7.60;2.63;;;17.70;93.70;;;;;;5051438;28;20567;-82
2024/04/08 04:24:15;;;;;;;3.80;2.57;;;17.70;93.60;;;;;;5053981;28;20442;-82
2024/04/08 04:26:41;;;;;;;4.13;2.20;;;17.70;93.70;;;;;;5056324;28;20464;-82
2024/04/08 04:29:08;;;;;;;8.63;3.00;;;17.70;94.10;;;;;;5057732;28;20453;-83
2024/04/08 04:31:42;;;;;;;4.80;2.90;;;17.70;94.40;;;;;;5051771;28;20478;-81
2024/04/08 04:34:10;;;;;;;5.07;3.07;;;17.50;93.50;;;;;;5067875;28;20491;-80
2024/04/08 04:36:37;;;;;;;4.97;2.60;;;17.50;93.50;;;;;;5061586;28;20432;-83
2024/04/08 04:39:05;;;;;;;10.40;2.80;;;17.50;94.10;;;;;;5058565;28;20471;-83
2024/04/08 04:41:32;;;;;;;4.00;2.70;;;17.40;93.70;;;;;;5053769;28;20514;-81
2024/04/08 04:43:59;;;;;;;7.63;3.13;;;17.40;93.30;;;;;;5061407;28;20445;-84
2024/04/08 04:46:25;;;;;;;9.00;3.00;;;17.20;93.00;;;;;;5041077;28;20224;-82
2024/04/08 04:48:52;;;;;;;8.80;2.93;;;17.20;94.30;;;;;;5053689;28;20483;-84
2024/04/08 04:51:20;;;;;;;7.90;2.57;;;17.20;93.30;;;;;;5045515;28;20477;-84
2024/04/08 04:53:47;;;;;;;6.87;3.17;;;17.30;93.20;;;;;;5040073;28;20471;-81
2024/04/08 04:56:13;;;;;;;8.33;2.63;;;17.30;94.00;;;;;;5056488;28;20467;-78
2024/04/08 04:58:41;;;;;;;6.83;2.67;;;17.20;94.90;;;;;;5053857;28;20444;-78
2024/04/08 05:01:07;;;;;;;12.63;3.50;;;17.20;94.80;;;;;;5046844;28;20520;-78
2024/04/08 05:03:34;;;;;;;6.23;2.80;;;17.20;93.70;;;;;;5051198;28;20481;-82
2024/04/08 05:06:01;;;;;;;6.80;2.87;;;17.30;90.60;;;;;;5058123;28;20497;-81
2024/04/08 05:08:29;;;;;;;7.17;2.83;;;17.50;90.00;;;;;;5056708;28;20518;-82
2024/04/08 05:10:55;;;;;;;4.10;2.47;;;17.60;88.90;;;;;;5046609;28;20509;-80
2024/04/08 05:13:23;;;;;;;6.63;2.70;;;17.70;90.00;;;;;;5051656;28;20486;-79
2024/04/08 05:15:56;;;;;;;9.67;3.10;;;17.70;87.50;;;;;;5052786;28;20451;-80
2024/04/08 05:18:23;;;;;;;4.70;2.30;;;17.70;88.90;;;;;;5034488;28;20534;-81
2024/04/08 05:20:50;;;;;;;6.00;2.83;;;17.80;89.90;;;;;;5057341;28;20478;-80
2024/04/08 05:23:20;;;;;;;4.47;2.47;;;17.90;89.70;;;;;;5030876;28;20528;-80
2024/04/08 05:25:48;;;;;;;7.13;2.30;;;17.90;89.40;;;;;;5065566;28;20460;-81
2024/04/08 05:28:15;;;;;;;4.63;2.50;;;17.90;87.80;;;;;;5051788;28;20522;-81
2024/04/08 05:30:41;;;;;;;4.37;2.20;;;17.90;89.20;;;;;;5056612;28;20566;-81
2024/04/08 05:33:09;;;;;;;4.60;2.60;;;18.00;87.00;;;;;;5049444;28;20498;-83
2024/04/08 05:35:36;;;;;;;7.67;2.40;;;18.10;88.10;;;;;;5050424;28;20458;-80
2024/04/08 05:38:03;;;;;;;5.10;2.40;;;18.10;86.80;;;;;;5062447;28;20470;-81
2024/04/08 05:40:34;;;;;;;3.00;2.10;;;18.20;87.60;;;;;;5052161;28;20969;-81
2024/04/08 05:43:03;;;;;;;6.90;2.00;;;18.20;85.80;;;;;;5051036;28;20483;-82
2024/04/08 05:45:29;;;;;;;3.73;2.20;;;18.30;84.10;;;;;;5035777;28;20436;-81
2024/04/08 05:47:57;;;;;;;3.20;1.90;;;18.30;85.20;;;;;;5061950;28;20455;-82
2024/04/08 05:50:24;;;;;;;5.07;2.10;;;18.40;85.60;;;;;;5052130;28;20506;-81
2024/04/08 05:52:51;;;;;;;3.83;1.77;;;18.40;85.90;;;;;;5055607;28;20454;-82
2024/04/08 05:55:17;;;;;;;3.83;2.00;;;18.50;86.50;;;;;;5054372;28;20486;-80
2024/04/08 05:57:45;;;;;;;8.73;2.37;;;18.50;86.20;;;;;;5052827;28;21029;-82
2024/04/08 06:00:13;;;;;;;6.43;3.23;;;18.50;97.10;;;;;;5053084;28;20501;-83
2024/04/08 06:02:41;;;;;;;5.83;2.60;;;18.60;88.00;;;;;;5047042;28;20462;-81
2024/04/08 06:05:08;;;;;;;4.37;2.23;;;18.60;87.50;;;;;;5034329;28;20484;-81
2024/04/08 06:07:36;;;;;;;4.13;2.20;;;18.60;87.60;;;;;;5051781;28;20463;-81
2024/04/08 06:10:02;;;;;;;6.43;2.67;;;18.60;87.10;;;;;;5053077;28;20447;-82
2024/04/08 06:12:30;;;;;;;8.90;2.43;;;18.60;89.20;;;;;;5050387;28;20538;-81
2024/04/08 06:14:56;;;;;;;3.67;2.83;;;18.70;90.50;;;;;;5053928;28;20478;-81
2024/04/08 06:17:25;;;;;;;6.97;2.30;;;18.60;90.40;;;;;;5034326;28;20455;-81
2024/04/08 06:19:51;;;;;;;5.20;2.67;;;18.60;91.10;;;;;;5053893;28;20462;-82
2024/04/08 06:22:18;;;;;;;8.20;2.60;;;18.70;90.90;;;;;;5034016;28;20459;-83
2024/04/08 06:24:45;;;;;;;6.73;2.57;;;18.70;91.20;;;;;;5058364;28;20969;-82
2024/04/08 06:27:12;;;;;;;6.33;3.50;;;18.80;92.40;;;;;;5050957;28;20877;-80
2024/04/08 06:29:38;;;;;;;7.20;2.03;;;18.80;92.00;;;;;;5053856;28;20483;-81
2024/04/08 06:32:06;;;;;;;6.30;3.10;;;18.80;92.30;;;;;;5051954;28;20471;-81
2024/04/08 06:34:34;;;;;;;6.33;2.93;;;18.90;92.30;;;;;;5052269;28;20533;-81
2024/04/08 06:37:02;;;;;;;9.43;2.60;;;19.00;93.30;;;;;;5048237;28;20451;-80
2024/04/08 06:39:28;;;;;;;5.70;2.50;;;19.00;93.30;;;;;;5058897;28;20481;-82
2024/04/08 06:41:55;;;;;;;7.53;3.17;;;19.10;93.80;;;;;;5047258;28;20478;-81
2024/04/08 06:44:21;;;;;;;4.80;2.57;;;19.10;93.80;;;;;;5053710;28;20459;-81
2024/04/08 06:46:49;;;;;;;4.90;2.77;;;19.20;94.40;;;;;;5055410;28;20466;-81
2024/04/08 06:49:15;;;;;;;6.93;2.60;;;19.20;94.80;;;;;;5050991;28;20608;-81
2024/04/08 06:51:43;;;;;;;5.00;3.10;;;19.30;94.90;;;;;;5053683;28;20474;-80
2024/04/08 06:54:10;;;;;;;6.00;2.23;;;19.40;95.20;;;;;;5049749;28;20510;-80
2024/04/08 06:56:38;;;;;;;5.13;2.30;;;19.50;95.80;;;;;;5050658;28;20529;-80
2024/04/08 06:59:04;;;;;;;7.50;2.60;;;19.60;95.70;;;;;;5050616;28;20459;-83
2024/04/08 07:01:33;;;;;;;5.80;2.53;;;19.60;95.70;;;;;;5048205;28;20501;-81
2024/04/08 07:03:59;;;;;;;7.93;2.30;;;19.70;95.20;;;;;;5051308;28;20538;-81
2024/04/08 07:06:26;;;;;;;10.53;2.23;;;19.80;95.80;;;;;;5052997;28;21271;-81
2024/04/08 07:08:54;;;;;;;3.07;2.60;;;19.80;95.70;;;;;;5052108;28;20556;-81
2024/04/08 07:11:21;;;;;;;7.45;2.50;;;19.90;96.50;;;;;;5051372;28;20574;-81
2024/04/08 07:13:47;;;;;;;3.13;2.60;;;19.90;97.10;;;;;;5053259;28;20295;-82
2024/04/08 07:16:16;;;;;;;4.67;2.20;;;20.10;97.50;;;;;;5055222;28;20973;-80
2024/04/08 07:18:42;;;;;;;6.27;2.20;;;20.10;97.90;;;;;;5056164;28;20486;-81
2024/04/08 07:21:09;;;;;;;3.87;2.27;;;20.20;98.50;;;;;;5055725;28;20493;-81
2024/04/08 07:23:35;;;;;;;9.30;3.07;;;20.30;97.50;;;;;;5058424;28;20443;-82
2024/04/08 07:26:04;;;;;;;6.70;2.40;;;20.30;98.20;;;;;;5056348;28;20451;-83
2024/04/08 07:28:31;;;;;;;6.67;2.30;;;20.40;98.00;;;;;;5061382;28;20517;-81
2024/04/08 07:30:58;;;;;;;6.60;2.57;;;20.60;99.60;;;;;;5056084;28;20475;-81
2024/04/08 07:33:24;;;;;;;5.40;2.20;;;20.60;98.80;;;;;;5056722;28;20438;-81
2024/04/08 07:35:51;;;;;;;5.27;1.77;;;20.70;98.00;;;;;;5057974;28;20792;-81
2024/04/08 07:38:17;;;;;;;3.80;1.93;;;20.70;97.90;;;;;;5065205;28;20832;-82
2024/04/08 07:40:45;;;;;;;6.73;2.13;;;20.90;99.60;;;;;;5058182;28;20562;-83
2024/04/08 07:43:12;;;;;;;4.73;2.30;;;20.90;99.30;;;;;;5056636;28;20450;-81
2024/04/08 07:45:40;;;;;;;3.93;1.80;;;21.00;99.90;;;;;;5057756;28;20504;-80
2024/04/08 07:48:08;;;;;;;3.20;2.00;;;21.00;99.40;;;;;;5054615;28;20455;-80
2024/04/08 07:50:38;;;;;;;6.27;2.10;;;21.10;99.90;;;;;;5057586;28;20481;-81
2024/04/08 07:53:05;;;;;;;9.03;2.60;;;21.10;99.70;;;;;;5054722;28;20458;-81
2024/04/08 07:55:32;;;;;;;3.40;2.00;;;21.20;99.80;;;;;;5055856;28;20564;-80
2024/04/08 07:57:59;;;;;;;7.10;2.37;;;21.20;99.90;;;;;;5063893;28;20992;-80
2024/04/08 08:00:27;;;;;;;3.57;1.97;;;21.30;99.50;;;;;;5055464;28;20549;-80
2024/04/08 08:02:53;;;;;;;4.37;1.77;;;21.40;99.90;;;;;;5038364;28;20454;-81
2024/04/08 08:05:21;;;;;;;5.53;2.00;;;21.40;99.90;;;;;;5053796;28;20458;-81
2024/04/08 08:07:47;;;;;;;4.30;1.83;;;21.40;99.90;;;;;;5057574;28;20460;-82
2024/04/08 08:10:15;;;;;;;5.70;2.17;;;21.40;99.90;;;;;;5057943;28;20570;-79
2024/04/08 08:12:42;;;;;;;3.50;1.93;;;21.50;99.90;;;;;;5056650;28;20491;-79
2024/04/08 08:15:09;;;;;;;9.07;2.00;;;21.50;99.90;;;;;;5056887;28;20515;-80
2024/04/08 08:17:38;;;;;;;3.60;2.23;;;21.60;99.90;;;;;;5059213;28;20470;-80
2024/04/08 08:20:07;;;;;;;3.10;2.00;;;21.60;99.90;;;;;;5063655;28;20519;-79
2024/04/08 08:22:34;;;;;;;3.23;1.93;;;21.70;99.90;;;;;;5056854;28;20446;-80
2024/04/08 08:25:02;;;;;;;3.43;1.93;;;21.70;99.90;;;;;;5053169;28;20549;-80
2024/04/08 08:27:30;;;;;;;4.03;2.00;;;21.80;99.90;;;;;;5055989;28;20532;-80
2024/04/08 08:29:57;;;;;;;4.90;2.03;;;21.80;99.90;;;;;;5040459;28;20588;-80
2024/04/08 08:32:24;;;;;;;8.07;2.40;;;21.90;99.90;;;;;;5056236;28;20488;-82
2024/04/08 08:34:54;;;;;;;7.77;2.23;;;22.00;99.90;;;;;;5058066;28;20471;-82
2024/04/08 08:37:20;;;;;;;4.47;1.83;;;22.10;99.90;;;;;;5054278;28;20462;-79
2024/04/08 08:39:50;;;;;;;4.77;2.23;;;22.10;99.90;;;;;;5056462;28;20545;-80
2024/04/08 08:42:21;;;;;;;4.83;2.23;;;22.10;99.90;;;;;;5062466;28;21265;-80
2024/04/08 08:44:52;;;;;;;5.97;2.30;;;22.20;99.90;;;;;;5054792;28;20570;-81
2024/04/08 08:47:21;;;;;;;7.73;2.57;;;22.20;99.90;;;;;;5045749;28;20487;-83
2024/04/08 08:49:51;;;;;;;7.30;2.83;;;22.20;99.90;;;;;;5057423;28;20478;-82
2024/04/08 08:52:19;;;;;;;5.87;1.97;;;22.30;99.90;;;;;;5053638;28;20455;-80
2024/04/08 08:54:46;;;;;;;6.20;2.17;;;22.30;99.90;;;;;;5052126;28;20577;-80
2024/04/08 08:57:14;;;;;;;13.77;2.67;;;22.40;99.90;;;;;;5054602;28;20512;-81
2024/04/08 08:59:43;;;;;;;4.77;2.53;;;22.40;99.90;;;;;;5054041;28;20455;-80
2024/04/08 09:02:11;;;;;;;7.20;2.50;;;22.40;99.90;;;;;;5050712;28;20468;-80
2024/04/08 09:04:39;;;;;;;3.37;2.67;;;22.50;99.90;;;;;;5057524;28;20452;-80
2024/04/08 09:07:05;;;;;;;4.80;1.90;;;22.60;99.90;;;;;;5055433;28;20898;-81
2024/04/08 09:09:34;;;;;;;7.07;2.00;;;22.60;99.90;;;;;;5053255;28;20450;-80
2024/04/08 09:12:00;;;;;;;2.53;1.77;;;22.60;99.90;;;;;;5053486;28;21407;-82
2024/04/08 09:14:28;;;;;;;7.27;1.80;;;22.60;99.90;;;;;;5053378;28;20476;-80
2024/04/08 09:17:04;;;;;;;7.67;1.67;;;22.60;99.90;;;;;;5053527;28;20521;-81
2024/04/08 09:19:31;;;;;;;3.30;1.97;;;22.60;99.90;;;;;;5053111;28;20436;-82
2024/04/08 09:21:58;;;;;;;3.47;1.90;;;22.70;99.90;;;;;;5038208;28;20478;-78
2024/04/08 09:24:25;;;;;;;6.80;1.60;;;22.70;99.90;;;;;;5055600;28;20485;-77
2024/04/08 09:26:54;;;;;;;4.63;1.80;;;22.90;99.90;;;;;;5057194;28;21485;-77
2024/04/08 09:29:21;;;;;;;6.17;1.80;;;23.00;99.90;;;;;;5051652;28;20439;-79
2024/04/08 09:31:48;;;;;;;6.23;2.30;;;23.00;99.90;;;;;;5052245;28;20490;-79
2024/04/08 09:34:15;;;;;;;4.17;2.27;;;23.00;99.90;;;;;;5053732;28;20466;-80
2024/04/08 09:36:42;;;;;;;9.60;2.20;;;23.10;99.90;;;;;;5057772;28;20454;-81
2024/04/08 09:39:12;;;;;;;8.20;2.30;;;23.10;99.90;;;;;;5052850;28;20891;-79
2024/04/08 09:41:39;;;;;;;7.60;2.00;;;23.20;99.90;;;;;;5055188;28;20482;-81
2024/04/08 09:44:10;;;;;;;4.07;1.57;;;23.30;99.90;;;;;;5052745;28;20438;-82
2024/04/08 09:46:36;;;;;;;5.53;1.73;;;23.40;99.90;;;;;;5056515;28;20452;-81
2024/04/08 09:49:04;;;;;;;5.80;1.57;;;23.40;99.90;;;;;;5053576;28;20481;-81
2024/04/08 09:51:31;;;;;;;5.47;1.70;;;23.50;99.90;;;;;;5053505;28;20631;-82
2024/04/08 09:53:58;;;;;;;4.03;1.50;;;23.50;99.90;;;;;;5051293;28;20487;-82
2024/04/08 09:56:29;;;;;;;3.85;1.60;;;23.40;99.90;;;;;;5052288;28;20449;-81
2024/04/08 09:59:04;;;;;;;3.40;1.40;;;23.50;99.90;;;;;;5055934;28;20246;-82
2024/04/08 10:01:32;;;;;;;9.50;1.80;;;23.50;99.90;;;;;;5050829;28;20466;-82
2024/04/08 10:04:03;;;;;;;2.60;1.47;;;23.50;99.90;;;;;;5053254;28;20448;-82
2024/04/08 10:06:30;;;;;;;5.00;1.60;;;23.50;99.90;;;;;;5052026;28;20456;-82
2024/04/08 10:08:58;;;;;;;6.80;1.90;;;23.60;99.90;;;;;;5054529;28;20447;-82
2024/04/08 10:11:24;;;;;;;4.63;1.77;;;23.60;99.90;;;;;;5051145;28;20458;-83
2024/04/08 10:13:52;;;;;;;9.23;1.97;;;23.60;99.90;;;;;;5053817;28;20471;-83
2024/04/08 10:16:19;;;;;;;2.23;1.53;;;23.70;99.90;;;;;;5042216;28;20842;-83
2024/04/08 10:18:53;;;;;;;4.53;2.10;;;23.70;99.90;;;;;;5054948;28;20492;-82
2024/04/08 10:21:21;;;;;;;7.57;2.20;;;23.70;99.90;;;;;;5052719;28;20474;-81
2024/04/08 10:23:48;;;;;;;3.63;1.50;;;23.70;99.90;;;;;;5049529;28;21300;-85
2024/04/08 10:26:15;;;;;;;2.40;1.43;;;23.80;99.90;;;;;;5051586;28;20447;-83
2024/04/08 10:28:43;;;;;;;3.70;1.60;;;23.80;99.90;;;;;;5051368;28;20443;-82
2024/04/08 10:31:12;;;;;;;4.00;2.30;;;23.90;99.90;;;;;;5047813;28;20529;-82
2024/04/08 10:33:39;;;;;;;5.20;1.80;;;23.90;99.90;;;;;;5050981;28;20440;-82
2024/04/08 10:36:08;;;;;;;3.60;1.80;;;23.90;99.90;;;;;;5054365;28;20498;-83
2024/04/08 10:38:35;;;;;;;9.10;1.90;;;24.00;99.90;;;;;;5041050;28;20562;-85
2024/04/08 10:41:05;;;;;;;6.80;1.70;;;24.10;99.90;;;;;;5052957;28;20483;-83
2024/04/08 10:43:33;;;;;;;1.97;1.50;;;24.10;99.90;;;;;;5055720;28;20501;-82
2024/04/08 10:45:59;;;;;;;3.67;1.57;;;24.10;99.90;;;;;;5053389;28;20454;-82
2024/04/08 10:48:26;;;;;;;4.80;1.60;;;24.20;99.90;;;;;;5057798;28;20856;-82
2024/04/08 10:50:53;;;;;;;7.43;1.90;;;24.20;99.90;;;;;;5056062;28;20498;-81
2024/04/08 10:53:22;;;;;;;3.50;1.90;;;24.20;99.90;;;;;;5058138;28;20500;-83
2024/04/08 10:55:48;;;;;;;7.67;1.60;;;24.20;99.90;;;;;;5054363;28;20479;-84
2024/04/08 10:58:15;;;;;;;4.30;1.53;;;24.30;99.90;;;;;;5057859;28;20469;-84
2024/04/08 11:00:42;;;;;;;4.63;2.03;;;24.40;99.90;;;;;;5059601;28;20819;-80
2024/04/08 11:03:10;;;;;;;1.97;1.60;;;24.40;99.90;;;;;;5056325;28;20964;-81
2024/04/08 11:05:37;;;;;;;6.07;2.10;;;24.40;99.90;;;;;;5056697;28;20468;-82
2024/04/08 11:08:04;;;;;;;6.50;1.97;;;24.40;99.90;;;;;;5054086;28;20981;-81
2024/04/08 11:10:32;;;;;;;8.60;2.13;;;24.50;99.90;;;;;;5035102;28;21032;-80
2024/04/08 11:13:00;;;;;;;4.13;2.33;;;24.70;99.90;;;;;;5037262;28;20851;-84
2024/04/08 11:15:28;;;;;;;5.70;1.53;;;24.70;99.90;;;;;;5051622;28;21250;-83
2024/04/08 11:17:57;;;;;;;5.93;2.00;;;24.70;99.90;;;;;;5052312;28;20512;-80
2024/04/08 11:20:25;;;;;;;8.50;2.50;;;24.70;99.90;;;;;;5053899;28;20506;-80
2024/04/08 11:22:52;;;;;;;9.63;2.10;;;24.80;99.90;;;;;;5055086;28;20502;-80
2024/04/08 11:25:19;;;;;;;7.30;2.17;;;24.70;99.90;;;;;;5051757;28;20569;-79
2024/04/08 11:27:47;;;;;;;7.40;1.70;;;24.70;99.90;;;;;;5055288;28;20439;-80
2024/04/08 11:30:15;;;;;;;8.33;2.57;;;24.80;99.90;;;;;;5054428;28;20514;-80
2024/04/08 11:32:43;;;;;;;8.00;2.07;;;24.70;99.90;;;;;;5052182;28;20510;-78
2024/04/08 11:35:09;;;;;;;7.97;1.77;;;24.70;99.90;;;;;;5037033;28;20534;-80
2024/04/08 11:37:36;;;;;;;9.03;2.13;;;24.80;99.90;;;;;;5056105;28;20866;-80
2024/04/08 11:40:04;;;;;;;9.20;1.90;;;24.70;99.90;;;;;;5050007;28;20518;-81
2024/04/08 11:42:31;;;;;;;7.93;1.93;;;24.70;99.90;;;;;;5055886;28;20512;-79
2024/04/08 11:45:01;;;;;;;5.53;1.90;;;24.60;99.90;;;;;;5056336;28;21147;-78
2024/04/08 11:47:28;;;;;;;7.57;2.40;;;24.70;99.90;;;;;;5059024;28;20471;-81
2024/04/08 11:49:55;;;;;;;4.53;1.87;;;24.60;99.90;;;;;;5060448;28;20537;-78
2024/04/08 11:52:22;;;;;;;5.60;1.93;;;24.60;99.90;;;;;;5055287;28;20543;-81
2024/04/08 11:54:49;;;;;;;6.40;2.43;;;24.50;99.90;;;;;;5052910;28;20471;-81
2024/04/08 11:57:17;;;;;;;4.40;2.30;;;24.60;99.90;;;;;;5053388;28;20447;-80
2024/04/08 11:59:43;;;;;;;8.80;2.47;;;24.60;99.90;;;;;;5053038;28;20455;-79
2024/04/08 12:02:12;;;;;;;10.43;2.37;;;24.70;99.90;;;;;;5054888;28;20561;-80
2024/04/08 12:04:43;;;;;;;8.20;2.23;;;24.70;99.90;;;;;;5056553;28;20454;-79
2024/04/08 12:07:11;;;;;;;7.10;2.27;;;24.70;99.90;;;;;;5066348;28;20435;-79
2024/04/08 12:09:40;;;;;;;8.33;2.83;;;24.60;99.90;;;;;;5053052;28;20483;-79
2024/04/08 12:12:09;;;;;;;11.80;2.67;;;24.60;99.90;;;;;;5055110;28;20495;-79
2024/04/08 12:14:35;;;;;;;9.60;2.17;;;24.50;99.90;;;;;;5055231;28;20543;-79
2024/04/08 12:17:02;;;;;;;8.27;2.30;;;24.60;99.90;;;;;;5039675;28;20443;-79
2024/04/08 12:19:30;;;;;;;5.70;2.30;;;24.60;99.90;;;;;;5051706;28;20529;-79
2024/04/08 12:21:57;;;;;;;5.37;2.30;;;24.60;99.90;;;;;;5056497;28;20562;-78
2024/04/08 12:24:23;;;;;;;7.67;2.53;;;24.50;99.90;;;;;;5053451;28;20833;-79
2024/04/08 12:26:51;;;;;;;6.80;2.50;;;24.60;99.90;;;;;;5050688;28;20501;-79
2024/04/08 12:29:18;;;;;;;9.70;2.37;;;24.60;99.90;;;;;;5050671;28;21070;-82
2024/04/08 12:31:45;;;;;;;12.47;3.60;;;24.50;99.90;;;;;;5055140;28;20473;-80
2024/04/08 12:34:12;;;;;;;6.07;3.00;;;24.70;99.90;;;;;;5050765;28;21422;-79
2024/04/08 12:36:41;;;;;;;9.53;2.67;;;24.70;99.90;;;;;;5054177;28;20456;-78
2024/04/08 12:39:07;;;;;;;11.27;3.10;;;24.70;99.90;;;;;;5051354;28;20506;-80
2024/04/08 12:41:35;;;;;;;12.47;3.90;;;24.70;99.90;;;;;;5062841;28;20529;-82
2024/04/08 12:44:01;;;;;;;8.77;2.50;;;24.70;99.90;;;;;;5054046;28;20791;-81
2024/04/08 12:46:28;;;;;;;10.43;3.00;;;24.80;99.90;;;;;;5056192;28;20478;-82